createdAt,value
2018-09-18T11:54:31.708Z,6.00
2018-09-18T11:56:59.331Z,5.60
2018-09-18T11:59:27.015Z,5.37
2018-09-18T12:01:54.664Z,5.27
2018-09-18T12:04:22.339Z,5.50
2018-09-18T12:06:49.999Z,4.40
2018-09-18T12:09:17.667Z,5.10
2018-09-18T12:11:45.295Z,4.53
2018-09-18T12:14:12.903Z,4.60
2018-09-18T12:16:40.554Z,5.13
2018-09-18T12:19:08.228Z,5.30
2018-09-18T12:21:35.939Z,5.23
2018-09-18T12:24:03.554Z,5.60
2018-09-18T12:26:31.127Z,4.77
2018-09-18T12:28:58.743Z,4.77
2018-09-18T12:31:26.374Z,5.17
2018-09-18T12:33:54.863Z,5.40
2018-09-18T12:36:22.530Z,4.73
2018-09-18T12:38:50.114Z,5.50
2018-09-18T12:41:17.743Z,5.70
2018-09-18T12:43:45.654Z,4.90
2018-09-18T12:46:13.358Z,5.10
2018-09-18T12:48:41.647Z,5.70
2018-09-18T12:51:09.277Z,4.87
2018-09-18T12:53:36.930Z,5.07
2018-09-18T12:56:04.715Z,4.70
2018-09-18T12:58:32.350Z,4.40
2018-09-18T13:00:59.896Z,5.10
2018-09-18T13:03:27.580Z,4.90
2018-09-18T13:05:55.186Z,4.80
2018-09-18T13:08:22.775Z,5.67
2018-09-18T13:10:50.639Z,4.73
2018-09-18T13:13:18.515Z,4.67
2018-09-18T13:15:46.199Z,4.90
2018-09-18T13:18:13.822Z,4.80
2018-09-18T13:20:41.507Z,4.73
2018-09-18T13:23:09.187Z,5.03
2018-09-18T13:25:36.812Z,4.83
2018-09-18T13:28:04.471Z,5.40
2018-09-18T13:30:32.235Z,4.70
2018-09-18T13:33:00.183Z,5.00
2018-09-18T13:35:27.883Z,5.27
2018-09-18T13:37:55.571Z,5.20
2018-09-18T13:40:23.250Z,4.50
2018-09-18T13:42:50.891Z,5.20
2018-09-18T13:45:18.928Z,5.47
2018-09-18T13:47:46.510Z,5.20
2018-09-18T13:50:14.202Z,5.30
2018-09-18T13:52:41.994Z,5.20
2018-09-18T13:55:09.653Z,5.53
2018-09-18T13:57:37.454Z,5.70
2018-09-18T14:00:05.262Z,4.57
2018-09-18T14:02:32.942Z,5.73
2018-09-18T14:05:00.936Z,5.43
2018-09-18T14:07:28.574Z,4.40
2018-09-18T14:09:56.382Z,5.53
2018-09-18T14:12:24.061Z,5.57
2018-09-18T14:14:51.995Z,4.83
2018-09-18T14:17:19.651Z,4.73
2018-09-18T14:19:47.310Z,5.50
2018-09-18T14:22:14.998Z,5.67
2018-09-18T14:24:42.662Z,5.30
2018-09-18T14:27:10.347Z,5.20
2018-09-18T14:29:37.972Z,5.40
2018-09-18T14:32:05.627Z,5.40
2018-09-18T14:34:33.399Z,5.70
2018-09-18T14:37:01.076Z,5.63
2018-09-18T14:39:28.709Z,5.97
2018-09-18T14:41:56.519Z,5.33
2018-09-18T14:44:24.135Z,5.20
2018-09-18T14:46:51.902Z,5.20
2018-09-18T14:49:19.478Z,5.90
2018-09-18T14:51:47.104Z,5.60
2018-09-18T14:54:14.788Z,5.37
2018-09-18T14:56:42.574Z,5.93
2018-09-18T14:59:10.238Z,5.90
2018-09-18T15:01:37.926Z,4.93
2018-09-18T15:04:05.695Z,5.40
2018-09-18T15:06:34.051Z,6.27
2018-09-18T15:09:01.689Z,5.97
2018-09-18T15:11:30.544Z,5.47
2018-09-18T15:13:58.193Z,5.10
2018-09-18T15:16:25.955Z,5.40
2018-09-18T15:18:53.664Z,6.03
2018-09-18T15:21:21.346Z,5.70
2018-09-18T15:23:49.022Z,5.90
2018-09-18T15:26:16.722Z,4.87
2018-09-18T15:28:44.396Z,6.57
2018-09-18T15:31:12.026Z,6.40
2018-09-18T15:33:39.753Z,5.57
2018-09-18T15:36:07.353Z,6.37
2018-09-18T15:38:35.202Z,6.33
2018-09-18T15:41:02.960Z,5.50
2018-09-18T15:43:30.764Z,5.97
2018-09-18T15:45:58.630Z,5.47
2018-09-18T15:48:26.510Z,5.40
2018-09-18T15:50:54.245Z,6.90
2018-09-18T15:53:22.515Z,6.30
2018-09-18T15:55:50.371Z,6.63
2018-09-18T15:58:18.103Z,5.60
2018-09-18T16:00:45.861Z,5.67
2018-09-18T16:03:14.429Z,5.10
2018-09-18T16:05:42.170Z,5.57
2018-09-18T16:08:10.173Z,5.03
2018-09-18T16:10:37.811Z,5.00
2018-09-18T16:13:05.647Z,5.70
2018-09-18T16:18:00.872Z,5.17
2018-09-18T16:20:28.498Z,4.63
2018-09-18T16:22:56.312Z,5.40
2018-09-18T16:25:23.979Z,5.70
2018-09-18T16:27:51.698Z,6.10
2018-09-18T16:30:19.347Z,5.30
2018-09-18T16:32:47.059Z,5.73
2018-09-18T16:35:14.716Z,5.60
2018-09-18T16:37:42.386Z,5.60
2018-09-18T16:40:10.165Z,6.10
2018-09-18T16:42:37.854Z,4.77
2018-09-18T16:45:05.546Z,4.80
2018-09-18T16:47:33.279Z,5.37
2018-09-18T16:50:01.012Z,4.80
2018-09-18T16:52:28.761Z,6.13
2018-09-18T16:54:56.471Z,6.23
2018-09-18T16:57:24.929Z,4.67
2018-09-18T16:59:53.515Z,5.13
2018-09-18T17:02:21.493Z,4.70
2018-09-18T17:04:49.487Z,5.00
2018-09-18T17:07:17.360Z,5.90
2018-09-18T17:09:45.281Z,6.40
2018-09-18T17:12:13.195Z,5.27
2018-09-18T17:14:40.865Z,5.10
2018-09-18T17:17:08.570Z,4.97
2018-09-18T17:19:36.338Z,3.97
2018-09-18T17:22:03.988Z,4.17
2018-09-18T17:24:31.740Z,4.20
2018-09-18T17:26:59.796Z,5.10
2018-09-18T17:29:27.435Z,4.87
2018-09-18T17:31:55.091Z,4.93
2018-09-18T17:34:25.819Z,5.30
2018-09-18T17:36:53.366Z,5.23
2018-09-18T17:39:21.153Z,5.30
2018-09-18T17:41:48.971Z,4.53
2018-09-18T17:44:16.603Z,4.83
2018-09-18T17:46:45.164Z,5.10
2018-09-18T17:49:13.154Z,4.70
2018-09-18T17:51:42.949Z,4.60
2018-09-18T17:54:10.723Z,4.87
2018-09-18T17:56:38.428Z,5.80
2018-09-18T17:59:06.041Z,5.10
2018-09-18T18:01:33.778Z,4.37
2018-09-18T18:04:01.419Z,4.70
2018-09-18T18:06:29.120Z,4.40
2018-09-18T18:08:57.766Z,4.47
2018-09-18T18:11:25.436Z,4.27
2018-09-18T18:13:53.151Z,5.10
2018-09-18T18:16:22.559Z,5.40
2018-09-18T18:18:50.199Z,4.50
2018-09-18T18:21:18.019Z,5.20
2018-09-18T18:23:45.723Z,4.77
2018-09-18T18:26:13.364Z,5.80
2018-09-18T18:28:41.121Z,4.97
2018-09-18T18:31:08.825Z,4.90
2018-09-18T18:33:36.610Z,4.73
2018-09-18T18:36:04.434Z,5.03
2018-09-18T18:38:32.096Z,5.00
2018-09-18T18:40:59.718Z,6.40
2018-09-18T18:43:27.323Z,5.50
2018-09-18T18:45:55.142Z,5.30
2018-09-18T18:48:22.931Z,5.17
2018-09-18T18:50:50.411Z,5.37
2018-09-18T18:53:18.062Z,5.40
2018-09-18T18:55:45.728Z,5.20
2018-09-18T18:58:13.315Z,5.40
2018-09-18T19:00:40.977Z,5.37
2018-09-18T19:03:08.689Z,6.40
2018-09-18T19:05:36.495Z,5.17
2018-09-18T19:08:04.695Z,5.47
2018-09-18T19:10:32.425Z,5.70
2018-09-18T19:13:00.117Z,6.00
2018-09-18T19:15:27.990Z,5.10
2018-09-18T19:17:55.808Z,6.60
2018-09-18T19:20:23.505Z,7.00
2018-09-18T19:22:51.169Z,5.50
2018-09-18T19:25:18.871Z,7.10
2018-09-18T19:27:46.575Z,7.27
2018-09-18T19:30:14.359Z,6.70
2018-09-18T19:32:44.450Z,6.60
2018-09-18T19:35:12.177Z,7.57
2018-09-18T19:37:39.813Z,6.73
2018-09-18T19:40:07.511Z,7.30
2018-09-18T19:42:35.259Z,6.10
2018-09-18T19:45:03.008Z,6.03
2018-09-18T19:47:30.844Z,6.50
2018-09-18T19:49:58.577Z,5.73
2018-09-18T19:52:26.917Z,6.70
2018-09-18T19:54:54.505Z,6.63
2018-09-18T19:57:23.167Z,6.67
2018-09-18T19:59:51.297Z,7.07
2018-09-18T20:02:18.991Z,5.63
2018-09-18T20:04:46.676Z,7.20
2018-09-18T20:07:14.376Z,6.97
2018-09-18T20:09:42.305Z,6.83
2018-09-18T20:12:10.489Z,6.40
2018-09-18T20:14:39.189Z,7.23
2018-09-18T20:17:06.883Z,7.17
2018-09-18T20:19:34.614Z,7.30
2018-09-18T20:22:02.350Z,6.80
2018-09-18T20:24:30.085Z,7.43
2018-09-18T20:26:57.775Z,7.80
2018-09-18T20:29:25.761Z,8.90
2018-09-18T20:31:53.582Z,7.67
2018-09-18T20:34:22.343Z,7.37
2018-09-18T20:36:49.939Z,8.53
2018-09-18T20:39:18.447Z,7.13
2018-09-18T20:41:46.204Z,7.67
2018-09-18T20:44:13.928Z,6.73
2018-09-18T20:46:50.713Z,6.80
2018-09-18T20:49:18.351Z,6.77
2018-09-18T20:51:46.046Z,6.60
2018-09-18T20:56:47.318Z,6.40
2018-09-18T20:59:15.207Z,5.93
2018-09-18T21:01:42.801Z,5.90
2018-09-18T21:04:14.727Z,5.47
2018-09-18T21:06:46.189Z,5.70
2018-09-18T21:09:14.289Z,6.20
2018-09-18T21:11:41.947Z,6.97
2018-09-18T21:14:09.995Z,5.90
2018-09-18T21:16:37.696Z,6.50
2018-09-18T21:19:05.837Z,5.53
2018-09-18T21:21:33.486Z,5.37
2018-09-18T21:24:01.119Z,5.67
2018-09-18T21:26:28.759Z,6.07
2018-09-18T21:28:56.417Z,5.20
2018-09-18T21:31:24.315Z,5.57
2018-09-18T21:33:51.998Z,5.63
2018-09-18T21:36:19.674Z,5.20
2018-09-18T21:38:47.350Z,6.20
2018-09-18T21:41:20.003Z,6.10
2018-09-18T21:43:47.873Z,5.60
2018-09-18T21:46:15.550Z,4.40
2018-09-18T21:48:43.206Z,5.60
2018-09-18T21:51:11.894Z,5.90
2018-09-18T21:53:39.517Z,5.90
2018-09-18T21:56:07.302Z,5.30
2018-09-18T21:58:34.945Z,5.40
2018-09-18T22:01:05.778Z,6.47
2018-09-18T22:03:33.766Z,5.33
2018-09-18T22:06:02.455Z,5.37
2018-09-18T22:08:31.498Z,6.00
2018-09-18T22:10:59.144Z,5.50
2018-09-18T22:13:26.851Z,5.67
2018-09-18T22:15:54.574Z,5.43
2018-09-18T22:18:22.376Z,5.40
2018-09-18T22:20:50.077Z,5.03
2018-09-18T22:23:17.744Z,5.67
2018-09-18T22:25:45.366Z,6.20
2018-09-18T22:28:13.092Z,5.73
2018-09-18T22:30:40.690Z,5.67
2018-09-18T22:33:08.398Z,6.17
2018-09-18T22:35:35.958Z,6.07
2018-09-18T22:38:03.677Z,6.20
2018-09-18T22:40:31.263Z,6.20
2018-09-18T22:42:59.249Z,5.83
2018-09-18T22:45:27.509Z,6.57
2018-09-18T22:47:55.203Z,5.37
2018-09-18T22:50:22.924Z,6.30
2018-09-18T22:52:50.910Z,5.20
2018-09-18T22:55:19.087Z,6.13
2018-09-18T22:57:47.190Z,5.67
2018-09-18T23:00:14.892Z,6.40
2018-09-18T23:02:42.530Z,5.63
2018-09-18T23:05:10.117Z,5.80
2018-09-18T23:07:37.759Z,5.93
2018-09-18T23:10:06.316Z,6.10
2018-09-18T23:12:33.979Z,5.87
2018-09-18T23:15:01.876Z,6.23
2018-09-18T23:17:29.523Z,6.03
2018-09-18T23:19:57.420Z,5.10
2018-09-18T23:22:25.126Z,5.50
2018-09-18T23:24:53.452Z,5.60
2018-09-18T23:27:21.270Z,5.00
2018-09-18T23:29:49.201Z,5.37
2018-09-18T23:32:16.942Z,5.80
2018-09-18T23:34:45.102Z,5.73
2018-09-18T23:37:12.767Z,5.20
2018-09-18T23:39:40.626Z,5.20
2018-09-18T23:42:08.346Z,5.03
2018-09-18T23:44:36.058Z,5.67
2018-09-18T23:47:03.810Z,5.30
2018-09-18T23:49:31.499Z,4.70
2018-09-18T23:51:59.122Z,5.90
2018-09-18T23:54:26.964Z,5.50
2018-09-18T23:56:55.720Z,5.47
2018-09-18T23:59:23.558Z,5.90
